In Rescue
 
Open Full Screen Window  High Contrast Mode
Wind Gusting 00 knots
05
September 21, 2019 9:06 AM EDT
Present Weather: Mist
Weather Information
Wind Direction
  150 °
Wind Speed
  05 kt (6 mph)
Wind Gust
  00 kt (0 mph)
Altimeter
30.07 in
Visibility
2 1/2 SM
Temperature
18° C
64° F
Dewpoint
17° C
63° F
Humidity
94%
1hr Rain Fall
00.00 in.
24hr Rain Fall
00.00 in.
Sky Condition
Overcast @ 300 ft
LIFR

METAR KERY 211306Z AUTO 15005KT 2 1/2SM BR OVC003 18/17 A3007 RMK AO2 T01830169

FAA Disclaimer: The data displayed is for advisory purposes only and is not to be used for flight planning or operations.